createdAt,value
2018-12-31T00:03:00.544Z,101029.42
2018-12-31T00:06:02.421Z,101047.45
2018-12-31T00:09:04.767Z,101062.30
2018-12-31T00:12:06.613Z,101059.15
2018-12-31T00:15:08.862Z,101064.45
2018-12-31T00:18:10.781Z,101063.08
2018-12-31T00:21:12.745Z,101072.92
2018-12-31T00:24:14.652Z,101075.95
2018-12-31T00:27:16.557Z,101071.11
2018-12-31T00:30:18.444Z,101091.58
2018-12-31T00:33:20.317Z,101090.83
2018-12-31T00:36:22.266Z,101109.23
2018-12-31T00:39:24.297Z,101096.25
2018-12-31T00:42:26.252Z,101109.77
2018-12-31T00:45:28.295Z,101097.48
2018-12-31T00:48:30.138Z,101104.93
2018-12-31T00:51:32.085Z,101117.79
2018-12-31T00:54:33.962Z,101111.13
2018-12-31T00:57:35.905Z,101125.36
2018-12-31T01:00:38.061Z,101132.50
2018-12-31T01:03:40.035Z,101125.06
2018-12-31T01:06:41.914Z,101129.73
2018-12-31T01:09:43.829Z,101134.31
2018-12-31T01:12:45.714Z,101141.44
2018-12-31T01:15:49.533Z,101149.79
2018-12-31T01:18:51.448Z,101151.90
2018-12-31T01:21:53.465Z,101150.53
2018-12-31T01:24:55.339Z,101153.80
2018-12-31T01:27:57.308Z,101155.16
2018-12-31T01:30:59.205Z,101151.45
2018-12-31T01:34:01.141Z,101159.80
2018-12-31T01:37:03.019Z,101148.23
2018-12-31T01:40:05.001Z,101163.90
2018-12-31T01:43:06.905Z,101165.84
2018-12-31T01:46:09.858Z,101158.02
2018-12-31T01:49:11.790Z,101167.92
2018-12-31T01:52:13.736Z,101169.83
2018-12-31T01:55:15.640Z,101166.56
2018-12-31T01:58:17.536Z,101185.84
2018-12-31T02:01:19.428Z,101185.72
2018-12-31T02:04:21.312Z,101172.19
2018-12-31T02:07:23.160Z,101184.20
2018-12-31T02:10:25.106Z,101194.21
2018-12-31T02:13:27.063Z,101206.97
2018-12-31T02:16:29.146Z,101203.73
2018-12-31T02:19:31.014Z,101207.73
2018-12-31T02:22:32.978Z,101211.04
2018-12-31T02:25:34.876Z,101219.38
2018-12-31T02:28:36.833Z,101210.00
2018-12-31T02:31:38.727Z,101213.47
2018-12-31T02:34:40.687Z,101213.56
2018-12-31T02:37:42.542Z,101219.97
2018-12-31T02:40:44.466Z,101214.39
2018-12-31T02:43:46.363Z,101209.83
2018-12-31T02:46:49.697Z,101216.49
2018-12-31T02:49:51.579Z,101215.67
2018-12-31T02:52:53.530Z,101208.76
2018-12-31T02:55:55.484Z,101210.41
2018-12-31T02:58:57.423Z,101207.27
2018-12-31T03:01:59.274Z,101210.74
2018-12-31T03:05:01.239Z,101212.11
2018-12-31T03:08:03.151Z,101224.22
2018-12-31T03:11:05.087Z,101214.48
2018-12-31T03:14:07.000Z,101213.92
2018-12-31T03:17:10.698Z,101219.47
2018-12-31T03:20:12.609Z,101222.28
2018-12-31T03:23:14.480Z,101232.48
2018-12-31T03:26:16.445Z,101239.66
2018-12-31T03:29:18.332Z,101235.58
2018-12-31T03:32:20.240Z,101240.11
2018-12-31T03:35:22.069Z,101251.77
2018-12-31T03:38:24.080Z,101245.39
2018-12-31T03:41:26.031Z,101249.88
2018-12-31T03:44:27.932Z,101247.86
2018-12-31T03:47:29.847Z,101263.16
2018-12-31T03:50:31.795Z,101262.12
2018-12-31T03:53:33.671Z,101268.41
2018-12-31T03:56:35.539Z,101256.87
2018-12-31T03:59:37.434Z,101257.58
2018-12-31T04:02:39.371Z,101267.45
2018-12-31T04:05:41.256Z,101265.02
2018-12-31T04:08:43.161Z,101269.60
2018-12-31T04:11:45.016Z,101276.72
2018-12-31T04:14:47.143Z,101281.44
2018-12-31T04:17:49.659Z,101284.06
2018-12-31T04:20:51.617Z,101291.81
2018-12-31T04:23:53.543Z,101291.22
2018-12-31T04:26:55.493Z,101294.69
2018-12-31T04:29:57.413Z,101288.69
2018-12-31T04:32:59.343Z,101302.03
2018-12-31T04:36:01.212Z,101304.41
2018-12-31T04:39:05.861Z,101304.61
2018-12-31T04:42:07.778Z,101307.88
2018-12-31T04:45:09.672Z,101304.52
2018-12-31T04:48:11.639Z,101310.80
2018-12-31T04:51:13.516Z,101314.59
2018-12-31T04:54:15.453Z,101318.88
2018-12-31T04:57:17.327Z,101322.43
2018-12-31T05:00:19.261Z,101320.64
2018-12-31T05:03:21.129Z,101327.91
2018-12-31T05:06:23.078Z,101334.42
2018-12-31T05:09:25.049Z,101330.97
2018-12-31T05:12:27.024Z,101340.66
2018-12-31T05:15:28.995Z,101338.56
2018-12-31T05:18:31.097Z,101340.17
2018-12-31T05:21:33.021Z,101344.34
2018-12-31T05:24:34.877Z,101347.83
2018-12-31T05:27:36.793Z,101339.02
2018-12-31T05:30:38.731Z,101346.80
2018-12-31T05:33:40.643Z,101351.61
2018-12-31T05:36:42.604Z,101354.37
2018-12-31T05:39:44.583Z,101359.73
2018-12-31T05:42:46.490Z,101358.38
2018-12-31T05:45:48.471Z,101362.68
2018-12-31T05:48:50.399Z,101354.81
2018-12-31T05:51:52.290Z,101360.69
2018-12-31T05:54:54.147Z,101363.94
2018-12-31T05:57:56.072Z,101368.77
2018-12-31T06:00:58.336Z,101373.06
2018-12-31T06:04:00.271Z,101373.70
2018-12-31T06:07:02.186Z,101370.45
2018-12-31T06:10:04.652Z,101374.95
2018-12-31T06:13:06.568Z,101369.81
2018-12-31T06:16:08.424Z,101378.52
2018-12-31T06:19:11.016Z,101387.74
2018-12-31T06:22:12.902Z,101389.41
2018-12-31T06:25:14.868Z,101399.86
2018-12-31T06:28:16.784Z,101404.35
2018-12-31T06:31:18.702Z,101402.77
2018-12-31T06:34:20.584Z,101407.91
2018-12-31T06:37:22.460Z,101410.73
2018-12-31T06:40:24.349Z,101412.17
2018-12-31T06:43:26.340Z,101415.42
2018-12-31T06:46:28.258Z,101423.70
2018-12-31T06:49:30.230Z,101423.05
2018-12-31T06:52:32.114Z,101435.66
2018-12-31T06:55:34.154Z,101434.69
2018-12-31T06:58:36.058Z,101449.47
2018-12-31T07:01:38.062Z,101457.18
2018-12-31T07:04:39.950Z,101455.27
2018-12-31T07:07:41.909Z,101453.57
2018-12-31T07:10:43.833Z,101452.84
2018-12-31T07:13:45.691Z,101451.66
2018-12-31T07:16:47.573Z,101465.66
2018-12-31T07:19:49.604Z,101466.77
2018-12-31T07:22:53.224Z,101470.94
2018-12-31T07:25:55.390Z,101479.48
2018-12-31T07:28:57.343Z,101482.52
2018-12-31T07:31:59.343Z,101477.77
2018-12-31T07:35:02.409Z,101476.48
2018-12-31T07:38:04.526Z,101482.20
2018-12-31T07:41:06.510Z,101482.60
2018-12-31T07:44:08.480Z,101480.02
2018-12-31T07:47:10.320Z,101496.10
2018-12-31T07:50:12.295Z,101492.09
2018-12-31T07:53:14.221Z,101496.92
2018-12-31T07:56:16.170Z,101489.58
2018-12-31T07:59:18.090Z,101493.72
2018-12-31T08:02:20.014Z,101487.77
2018-12-31T08:05:21.968Z,101488.50
2018-12-31T08:08:23.985Z,101486.75
2018-12-31T08:11:25.891Z,101489.83
2018-12-31T08:14:27.855Z,101487.87
2018-12-31T08:17:29.711Z,101482.56
2018-12-31T08:20:31.804Z,101484.55
2018-12-31T08:23:33.807Z,101480.84
2018-12-31T08:26:35.717Z,101481.78
2018-12-31T08:29:37.652Z,101478.99
2018-12-31T08:32:39.580Z,101488.29
2018-12-31T08:35:41.489Z,101497.31
2018-12-31T08:38:43.377Z,101499.62
2018-12-31T08:41:45.334Z,101504.39
2018-12-31T08:44:47.313Z,101508.75
2018-12-31T08:47:49.284Z,101512.13
2018-12-31T08:50:51.197Z,101514.15
2018-12-31T08:53:53.238Z,101513.81
2018-12-31T08:56:55.156Z,101510.02
2018-12-31T08:59:57.099Z,101518.03
2018-12-31T09:02:58.990Z,101517.49
2018-12-31T09:06:00.911Z,101520.83
2018-12-31T09:09:05.020Z,101518.09
2018-12-31T09:12:06.979Z,101516.33
2018-12-31T09:15:08.930Z,101508.19
2018-12-31T09:18:10.925Z,101517.02
2018-12-31T09:21:12.936Z,101502.47
2018-12-31T09:24:14.809Z,101516.39
2018-12-31T09:27:16.757Z,101524.19
2018-12-31T09:30:18.625Z,101526.01
2018-12-31T09:33:20.553Z,101529.27
2018-12-31T09:36:22.497Z,101531.87
2018-12-31T09:39:24.508Z,101532.68
2018-12-31T09:42:26.404Z,101527.08
2018-12-31T09:45:28.396Z,101532.50
2018-12-31T09:48:30.331Z,101527.59
2018-12-31T09:51:32.340Z,101532.79
2018-12-31T09:54:34.265Z,101528.05
2018-12-31T09:57:36.150Z,101531.86
2018-12-31T10:00:38.075Z,101525.94
2018-12-31T10:03:40.022Z,101530.05
2018-12-31T10:06:41.985Z,101529.77
2018-12-31T10:09:43.915Z,101531.13
2018-12-31T10:12:45.765Z,101531.95
2018-12-31T10:15:47.785Z,101533.22
2018-12-31T10:18:49.706Z,101528.84
2018-12-31T10:21:51.842Z,101532.94
2018-12-31T10:24:53.884Z,101536.26
2018-12-31T10:27:55.781Z,101535.96
2018-12-31T10:30:57.797Z,101538.97
2018-12-31T10:33:59.808Z,101538.66
2018-12-31T10:37:01.759Z,101518.06
2018-12-31T10:40:06.892Z,101534.17
2018-12-31T10:43:08.767Z,101533.55
2018-12-31T10:46:10.855Z,101534.40
2018-12-31T10:49:13.738Z,101534.16
2018-12-31T10:52:15.695Z,101530.31
2018-12-31T10:55:17.563Z,101530.86
2018-12-31T10:58:19.674Z,101540.72
2018-12-31T11:01:21.561Z,101531.55
2018-12-31T11:04:23.584Z,101533.21
2018-12-31T11:07:25.508Z,101530.92
2018-12-31T11:10:27.458Z,101531.25
2018-12-31T11:13:29.381Z,101532.24
2018-12-31T11:16:31.300Z,101537.50
2018-12-31T11:19:34.257Z,101535.44
2018-12-31T11:22:36.335Z,101537.11
2018-12-31T11:25:39.807Z,101541.20
2018-12-31T11:28:41.757Z,101539.60
2018-12-31T11:31:43.724Z,101543.85
2018-12-31T11:34:45.637Z,101546.48
2018-12-31T11:37:47.831Z,101546.39
2018-12-31T11:40:49.707Z,101544.28
2018-12-31T11:43:51.595Z,101542.23
2018-12-31T11:46:53.462Z,101551.61
2018-12-31T11:49:55.426Z,101547.52
2018-12-31T11:52:57.465Z,101547.95
2018-12-31T11:55:59.397Z,101546.14
2018-12-31T11:59:01.298Z,101550.38
2018-12-31T12:02:03.193Z,101544.58
2018-12-31T12:05:05.070Z,101546.97
2018-12-31T12:12:01.282Z,101548.09
2018-12-31T12:15:04.827Z,101549.87
2018-12-31T12:18:06.757Z,101542.11
2018-12-31T12:21:08.633Z,101546.41
2018-12-31T12:24:15.581Z,101532.55
2018-12-31T12:27:17.480Z,101529.39
2018-12-31T12:30:19.376Z,101523.50
2018-12-31T12:33:21.246Z,101520.77
2018-12-31T12:36:36.574Z,101520.88
2018-12-31T12:39:38.430Z,101525.92
2018-12-31T12:42:40.374Z,101531.59
2018-12-31T12:45:42.299Z,101535.16
2018-12-31T12:48:44.267Z,101533.11
2018-12-31T12:51:46.146Z,101531.94
2018-12-31T12:54:48.079Z,101530.53
2018-12-31T12:57:50.005Z,101535.06
2018-12-31T13:00:51.874Z,101539.85
2018-12-31T13:03:55.110Z,101538.58
2018-12-31T13:06:57.319Z,101538.87
2018-12-31T13:09:59.283Z,101538.19
2018-12-31T13:13:01.234Z,101542.19
2018-12-31T13:16:03.793Z,101544.73
2018-12-31T13:19:05.724Z,101539.27
2018-12-31T13:22:07.637Z,101547.45
2018-12-31T13:25:09.768Z,101548.52
2018-12-31T13:28:11.700Z,101542.63
2018-12-31T13:31:13.802Z,101556.08
2018-12-31T13:34:15.921Z,101550.62
2018-12-31T13:37:17.796Z,101550.23
2018-12-31T13:40:19.758Z,101547.50
2018-12-31T13:43:21.662Z,101549.30
2018-12-31T13:46:23.781Z,101553.62
2018-12-31T13:49:25.717Z,101552.09
2018-12-31T13:52:27.730Z,101545.91
2018-12-31T13:55:29.658Z,101547.23
2018-12-31T13:58:31.613Z,101547.00
2018-12-31T14:01:33.785Z,101544.91
2018-12-31T14:04:36.376Z,101548.86
2018-12-31T14:07:38.278Z,101551.05
2018-12-31T14:10:40.185Z,101547.59
2018-12-31T14:13:42.090Z,101553.05
2018-12-31T14:16:44.063Z,101555.83
2018-12-31T14:19:45.962Z,101553.86
2018-12-31T14:22:47.979Z,101555.09
2018-12-31T14:25:50.005Z,101551.00
2018-12-31T14:28:51.911Z,101545.44
2018-12-31T14:31:53.826Z,101542.27
2018-12-31T14:34:55.782Z,101538.77
2018-12-31T14:37:57.689Z,101549.26
2018-12-31T14:40:59.637Z,101549.89
2018-12-31T14:44:02.116Z,101546.39
2018-12-31T14:47:04.202Z,101551.25
2018-12-31T14:50:06.466Z,101556.08
2018-12-31T14:53:08.502Z,101543.06
2018-12-31T14:56:10.421Z,101546.73
2018-12-31T14:59:12.376Z,101544.09
2018-12-31T15:02:14.313Z,101544.42
2018-12-31T15:05:16.226Z,101546.52
2018-12-31T15:08:18.090Z,101555.02
2018-12-31T15:11:20.061Z,101552.48
2018-12-31T15:14:22.048Z,101557.41
2018-12-31T15:17:23.954Z,101560.91
2018-12-31T15:20:25.840Z,101565.64
2018-12-31T15:23:27.870Z,101561.15
2018-12-31T15:26:29.916Z,101565.08
2018-12-31T15:29:31.854Z,101565.91
2018-12-31T15:32:34.328Z,101565.81
2018-12-31T15:35:38.157Z,101576.23
2018-12-31T15:38:40.073Z,101569.41
2018-12-31T15:41:41.993Z,101571.35
2018-12-31T15:44:43.889Z,101566.94
2018-12-31T15:47:45.875Z,101564.95
2018-12-31T15:50:48.100Z,101571.56
2018-12-31T15:53:49.995Z,101566.73
2018-12-31T15:56:51.921Z,101574.47
2018-12-31T15:59:53.894Z,101569.44
2018-12-31T16:02:55.821Z,101571.40
2018-12-31T16:05:57.738Z,101573.36
2018-12-31T16:08:59.594Z,101582.42
2018-12-31T16:12:01.539Z,101585.20
2018-12-31T16:15:04.987Z,101592.05
2018-12-31T16:18:06.882Z,101589.39
2018-12-31T16:21:09.464Z,101590.44
2018-12-31T16:24:11.371Z,101585.98
2018-12-31T16:27:13.405Z,101594.64
2018-12-31T16:30:15.629Z,101594.36
2018-12-31T16:33:17.556Z,101598.80
2018-12-31T16:36:19.837Z,101600.16
2018-12-31T16:39:21.735Z,101596.72
2018-12-31T16:42:23.653Z,101597.74
2018-12-31T16:45:25.633Z,101586.31
2018-12-31T16:48:27.504Z,101586.72
2018-12-31T16:51:29.434Z,101589.95
2018-12-31T16:54:31.529Z,101599.87
2018-12-31T16:57:33.600Z,101603.86
2018-12-31T17:00:35.673Z,101607.13
2018-12-31T17:03:37.730Z,101609.38
2018-12-31T17:06:39.684Z,101614.42
2018-12-31T17:09:41.676Z,101614.61
2018-12-31T17:12:43.583Z,101605.74
2018-12-31T17:15:45.572Z,101603.06
2018-12-31T17:18:47.496Z,101602.44
2018-12-31T17:21:49.431Z,101604.67
2018-12-31T17:24:51.319Z,101602.38
2018-12-31T17:27:53.850Z,101599.05
2018-12-31T17:30:55.737Z,101602.39
2018-12-31T17:33:57.677Z,101614.53
2018-12-31T17:37:00.869Z,101619.02
2018-12-31T17:40:03.270Z,101624.05
2018-12-31T17:43:05.210Z,101624.56
2018-12-31T17:46:07.173Z,101621.91
2018-12-31T17:49:09.108Z,101612.79
2018-12-31T17:52:11.095Z,101603.91
2018-12-31T17:55:12.986Z,101591.00
2018-12-31T17:58:14.991Z,101594.85
2018-12-31T18:01:16.958Z,101596.63
2018-12-31T18:04:18.926Z,101591.41
2018-12-31T18:07:20.848Z,101584.43
2018-12-31T18:10:22.808Z,101596.84
2018-12-31T18:13:24.725Z,101605.55
2018-12-31T18:16:26.656Z,101607.65
2018-12-31T18:19:28.590Z,101599.10
2018-12-31T18:22:30.527Z,101598.86
2018-12-31T18:25:32.720Z,101598.41
2018-12-31T18:28:34.894Z,101586.06
2018-12-31T18:31:36.831Z,101592.77
2018-12-31T18:34:38.962Z,101588.67
2018-12-31T18:37:41.962Z,101584.38
2018-12-31T18:40:44.194Z,101582.77
2018-12-31T18:43:46.105Z,101585.19
2018-12-31T18:46:48.101Z,101608.42
2018-12-31T18:49:50.032Z,101611.64
2018-12-31T18:52:51.909Z,101606.98
2018-12-31T18:55:53.782Z,101603.84
2018-12-31T18:58:55.772Z,101608.47
2018-12-31T19:01:57.670Z,101607.22
2018-12-31T19:04:59.589Z,101595.91
2018-12-31T19:08:01.525Z,101596.50
2018-12-31T19:15:13.016Z,101609.52
2018-12-31T19:18:14.918Z,101599.59
2018-12-31T19:21:16.893Z,101601.74
2018-12-31T19:24:18.851Z,101592.83
2018-12-31T19:27:20.863Z,101590.44
2018-12-31T19:30:22.894Z,101591.92
2018-12-31T19:33:24.833Z,101587.91
2018-12-31T19:36:26.666Z,101584.59
2018-12-31T19:39:28.606Z,101586.24
2018-12-31T19:42:30.825Z,101578.31
2018-12-31T19:45:32.806Z,101576.73
2018-12-31T19:48:34.700Z,101573.30
2018-12-31T19:51:36.853Z,101570.76
2018-12-31T19:54:38.736Z,101566.54
2018-12-31T19:57:40.707Z,101566.00
2018-12-31T20:00:42.794Z,101564.70
2018-12-31T20:03:44.800Z,101575.93
2018-12-31T20:06:46.710Z,101577.13
2018-12-31T20:09:48.590Z,101567.91
2018-12-31T20:12:50.505Z,101570.09
2018-12-31T20:15:52.371Z,101574.28
2018-12-31T20:18:54.285Z,101569.67
2018-12-31T20:21:56.193Z,101572.56
2018-12-31T20:24:58.066Z,101570.81
2018-12-31T20:27:59.961Z,101571.41
2018-12-31T20:31:02.009Z,101571.63
2018-12-31T20:34:03.891Z,101570.58
2018-12-31T20:37:05.755Z,101570.52
2018-12-31T20:40:07.675Z,101568.91
2018-12-31T20:43:10.586Z,101563.19
2018-12-31T20:46:12.546Z,101564.02
2018-12-31T20:49:14.471Z,101563.06
2018-12-31T20:52:16.407Z,101553.31
2018-12-31T20:55:18.326Z,101556.78
2018-12-31T20:58:20.230Z,101554.25
2018-12-31T21:01:22.147Z,101540.77
2018-12-31T21:04:25.915Z,101529.70
2018-12-31T21:07:27.992Z,101519.53
2018-12-31T21:10:30.077Z,101516.33
2018-12-31T21:13:32.031Z,101507.76
2018-12-31T21:16:33.954Z,101499.59
2018-12-31T21:19:35.842Z,101495.45
2018-12-31T21:22:37.821Z,101497.11
2018-12-31T21:25:42.496Z,101486.86
2018-12-31T21:28:44.467Z,101470.96
2018-12-31T21:31:46.723Z,101471.98
2018-12-31T21:34:49.217Z,101464.80
2018-12-31T21:37:51.146Z,101454.23
2018-12-31T21:40:53.099Z,101456.71
2018-12-31T21:43:55.702Z,101450.09
2018-12-31T21:46:57.623Z,101449.38
2018-12-31T21:49:59.519Z,101444.34
2018-12-31T21:53:01.823Z,101452.50
2018-12-31T21:56:03.763Z,101454.50
2018-12-31T21:59:05.743Z,101453.86
2018-12-31T22:02:07.769Z,101452.69
2018-12-31T22:05:09.753Z,101455.53
2018-12-31T22:08:11.654Z,101449.19
2018-12-31T22:11:13.679Z,101446.53
2018-12-31T22:14:15.563Z,101452.50
2018-12-31T22:17:17.544Z,101442.27
2018-12-31T22:20:19.457Z,101439.75
2018-12-31T22:23:21.343Z,101443.75
2018-12-31T22:26:23.232Z,101432.23
2018-12-31T22:29:25.227Z,101439.45
2018-12-31T22:32:27.259Z,101420.86
2018-12-31T22:35:29.220Z,101421.17
2018-12-31T22:38:31.143Z,101412.40
2018-12-31T22:41:33.102Z,101407.45
2018-12-31T22:44:35.085Z,101401.70
2018-12-31T22:47:38.017Z,101396.56
2018-12-31T22:50:39.963Z,101390.74
2018-12-31T22:53:42.229Z,101388.41
2018-12-31T22:56:44.139Z,101389.58
2018-12-31T22:59:46.826Z,101384.96
2018-12-31T23:02:48.762Z,101384.13
2018-12-31T23:05:50.697Z,101381.44
2018-12-31T23:08:52.818Z,101377.13
2018-12-31T23:11:54.746Z,101371.69
2018-12-31T23:14:56.635Z,101376.83
2018-12-31T23:17:58.536Z,101364.80
2018-12-31T23:21:00.519Z,101356.94
2018-12-31T23:24:02.511Z,101348.77
2018-12-31T23:27:04.388Z,101347.53
2018-12-31T23:30:08.451Z,101345.61
2018-12-31T23:33:10.453Z,101344.37
2018-12-31T23:36:12.496Z,101341.53
2018-12-31T23:39:14.507Z,101331.80
2018-12-31T23:42:16.479Z,101320.69
2018-12-31T23:45:18.416Z,101321.22
2018-12-31T23:48:20.361Z,101314.83
2018-12-31T23:51:22.288Z,101313.36
2018-12-31T23:54:24.218Z,101310.22
2018-12-31T23:57:26.221Z,101310.22
